Time;durP1;ratioP1;P1;durP2;ratioP2;P2;SDS_P1;SDS_P2;PMS_P1;PMS_P2;Temp;Humidity;BMP_temperature;BMP_pressure;BME280_temperature;BME280_humidity;BME280_pressure;Samples;Min_cycle;Max_cycle;Signal;HPM_P1;HPM_P2
2023/06/12 00:00:35;;;;;;;5.93;5.30;;;21.40;92.20;;;;;;5092481;28;20216;-72
2023/06/12 00:03:02;;;;;;;6.47;5.10;;;21.40;92.60;;;;;;5110668;28;20261;-72
2023/06/12 00:05:30;;;;;;;5.72;4.85;;;21.30;93.00;;;;;;5110121;28;20276;-72
2023/06/12 00:08:00;;;;;;;9.82;5.65;;;21.20;93.30;;;;;;5096056;28;20224;-72
2023/06/12 00:10:28;;;;;;;5.38;4.93;;;21.20;93.80;;;;;;5090351;28;20211;-72
2023/06/12 00:12:56;;;;;;;6.32;5.00;;;21.20;94.20;;;;;;5090077;28;20262;-72
2023/06/12 00:15:24;;;;;;;5.63;4.93;;;21.10;94.40;;;;;;5089310;28;20727;-72
2023/06/12 00:17:51;;;;;;;6.50;5.10;;;21.10;94.80;;;;;;5089950;28;20377;-72
2023/06/12 00:20:19;;;;;;;7.50;4.88;;;21.10;95.00;;;;;;5089891;28;20216;-72
2023/06/12 00:22:47;;;;;;;5.95;5.45;;;21.00;95.60;;;;;;5089483;28;20754;-72
2023/06/12 00:25:16;;;;;;;5.88;5.30;;;21.00;96.00;;;;;;5089246;28;20239;-72
2023/06/12 00:27:44;;;;;;;6.30;5.28;;;21.00;96.30;;;;;;5089829;28;20243;-72
2023/06/12 00:30:13;;;;;;;5.25;4.85;;;21.00;96.50;;;;;;5089938;28;20231;-72
2023/06/12 00:32:41;;;;;;;6.28;5.07;;;21.00;96.80;;;;;;5089877;28;20227;-72
2023/06/12 00:35:09;;;;;;;6.22;5.55;;;21.00;96.80;;;;;;5088631;28;20210;-72
2023/06/12 00:37:37;;;;;;;5.68;5.18;;;20.90;97.10;;;;;;5089458;28;20356;-72
2023/06/12 00:40:07;;;;;;;7.18;5.03;;;20.90;97.50;;;;;;5089578;28;20864;-72
2023/06/12 00:42:38;;;;;;;5.72;5.22;;;20.90;97.70;;;;;;5089708;28;20228;-72
2023/06/12 00:45:07;;;;;;;5.35;4.85;;;20.90;98.10;;;;;;5089062;28;20215;-71
2023/06/12 00:47:35;;;;;;;8.13;5.35;;;20.80;98.40;;;;;;5089430;28;20307;-72
2023/06/12 00:50:03;;;;;;;5.60;5.10;;;20.80;98.90;;;;;;5089362;28;20681;-72
2023/06/12 00:52:34;;;;;;;7.13;5.40;;;20.80;99.30;;;;;;5087235;28;20296;-72
2023/06/12 00:55:02;;;;;;;6.43;5.05;;;20.70;99.80;;;;;;5081001;28;20195;-72
2023/06/12 00:57:31;;;;;;;7.40;5.43;;;20.60;99.90;;;;;;5089214;28;20212;-71
2023/06/12 01:00:00;;;;;;;6.50;5.05;;;20.60;99.90;;;;;;5089237;28;20630;-72
2023/06/12 01:02:28;;;;;;;5.78;5.30;;;20.60;99.90;;;;;;5088870;28;20266;-72
2023/06/12 01:04:56;;;;;;;7.43;5.07;;;20.50;99.90;;;;;;5088058;28;20275;-72
2023/06/12 01:07:29;;;;;;;8.40;5.13;;;20.50;99.90;;;;;;5089111;28;20232;-72
2023/06/12 01:09:59;;;;;;;5.75;5.25;;;20.40;99.90;;;;;;5089227;28;20661;-71
2023/06/12 01:12:27;;;;;;;6.55;5.05;;;20.40;99.90;;;;;;5089322;28;20686;-72
2023/06/12 01:14:54;;;;;;;5.72;5.20;;;20.40;99.90;;;;;;5088602;28;20796;-71
2023/06/12 01:17:27;;;;;;;7.93;5.43;;;20.30;99.90;;;;;;5088264;28;20201;-71
2023/06/12 01:19:56;;;;;;;6.63;5.53;;;20.20;99.90;;;;;;5088540;28;20297;-71
2023/06/12 01:22:25;;;;;;;5.38;4.88;;;20.20;99.90;;;;;;5088775;28;20255;-71
2023/06/12 01:25:05;;;;;;;5.72;5.13;;;20.20;99.90;;;;;;5088418;28;20200;-71
2023/06/12 01:27:42;;;;;;;8.50;5.28;;;20.10;99.90;;;;;;5088194;28;20247;-71
2023/06/12 01:30:41;;;;;;;11.13;5.82;;;20.10;99.90;;;;;;5089014;28;20630;-71
2023/06/12 01:33:12;;;;;;;8.05;4.82;;;20.10;99.90;;;;;;5073567;28;20326;-71
2023/06/12 01:35:43;;;;;;;10.48;5.00;;;20.00;99.90;;;;;;5087731;28;20232;-71
2023/06/12 01:38:16;;;;;;;5.75;5.25;;;19.90;99.90;;;;;;5088655;28;20186;-71
2023/06/12 01:40:45;;;;;;;7.15;5.32;;;19.90;99.90;;;;;;5088722;28;20236;-71
2023/06/12 01:43:13;;;;;;;6.72;5.70;;;19.80;99.90;;;;;;5088704;28;20344;-71
2023/06/12 01:45:41;;;;;;;5.80;5.25;;;19.70;99.90;;;;;;5087313;28;20246;-71
2023/06/12 01:48:10;;;;;;;5.70;4.82;;;19.60;99.90;;;;;;5081300;28;20223;-71
2023/06/12 01:50:38;;;;;;;5.80;5.20;;;19.60;99.90;;;;;;5086303;28;20320;-71
2023/06/12 01:53:07;;;;;;;8.43;5.22;;;19.60;99.90;;;;;;5085064;28;20666;-71
2023/06/12 01:55:36;;;;;;;14.13;5.90;;;19.50;99.90;;;;;;5087056;28;20218;-71
2023/06/12 01:58:04;;;;;;;5.75;5.25;;;19.50;99.90;;;;;;5087844;28;20285;-71
2023/06/12 02:00:32;;;;;;;5.45;5.03;;;19.40;99.90;;;;;;5088187;28;20294;-71
2023/06/12 02:03:01;;;;;;;10.38;5.43;;;19.40;99.90;;;;;;5090330;28;20232;-71
2023/06/12 02:05:30;;;;;;;9.40;5.32;;;19.40;99.90;;;;;;5087553;28;20254;-71
2023/06/12 02:07:58;;;;;;;6.72;5.43;;;19.40;99.90;;;;;;5091283;28;20252;-71
2023/06/12 02:10:26;;;;;;;5.88;5.25;;;19.30;99.90;;;;;;5091571;28;20250;-71
2023/06/12 02:12:54;;;;;;;10.48;5.63;;;19.30;99.90;;;;;;5091396;28;20264;-71
2023/06/12 02:15:21;;;;;;;6.85;5.60;;;19.20;99.90;;;;;;5090251;28;20586;-72
2023/06/12 02:17:50;;;;;;;9.27;6.03;;;19.20;99.90;;;;;;5085981;28;20238;-72
2023/06/12 02:20:18;;;;;;;6.18;5.20;;;19.20;99.90;;;;;;5095557;28;20204;-71
2023/06/12 02:22:47;;;;;;;7.43;5.53;;;19.10;99.90;;;;;;5095134;28;20254;-71
2023/06/12 02:25:15;;;;;;;8.55;5.53;;;19.10;99.90;;;;;;5094599;28;20251;-71
2023/06/12 02:27:43;;;;;;;7.43;5.55;;;19.10;99.90;;;;;;5094695;28;20246;-71
2023/06/12 02:30:12;;;;;;;6.22;5.63;;;19.10;99.90;;;;;;5095389;28;20306;-71
2023/06/12 02:32:40;;;;;;;5.90;5.30;;;19.00;99.90;;;;;;5095043;28;20330;-71
2023/06/12 02:35:09;;;;;;;8.52;5.30;;;19.00;99.90;;;;;;5093997;28;20235;-71
2023/06/12 02:37:38;;;;;;;6.22;5.72;;;18.90;99.90;;;;;;5095091;28;20200;-71
2023/06/12 02:40:08;;;;;;;6.43;5.78;;;18.90;99.90;;;;;;5094950;28;20629;-71
2023/06/12 02:42:37;;;;;;;5.97;5.35;;;18.90;99.90;;;;;;5094856;28;20263;-71
2023/06/12 02:45:05;;;;;;;6.45;5.85;;;18.80;99.90;;;;;;5094085;28;20726;-70
2023/06/12 02:47:33;;;;;;;8.00;5.75;;;18.80;99.90;;;;;;5094570;28;20224;-71
2023/06/12 02:50:02;;;;;;;6.20;5.57;;;18.80;99.90;;;;;;5094715;28;20203;-71
2023/06/12 02:52:29;;;;;;;6.50;5.80;;;18.70;99.90;;;;;;5094858;28;20611;-71
2023/06/12 02:54:57;;;;;;;6.88;5.40;;;18.70;99.90;;;;;;5093555;28;20208;-71
2023/06/12 02:57:26;;;;;;;6.45;5.03;;;18.70;99.90;;;;;;5094539;28;20212;-71
2023/06/12 02:59:54;;;;;;;6.40;5.43;;;18.60;99.90;;;;;;5094554;28;20210;-71
2023/06/12 03:02:22;;;;;;;9.98;5.60;;;18.60;99.90;;;;;;5083384;28;21641;-71
2023/06/12 03:04:50;;;;;;;7.47;5.85;;;18.60;99.90;;;;;;5090509;28;20219;-71
2023/06/12 03:07:18;;;;;;;8.23;5.78;;;18.50;99.90;;;;;;5092289;28;20214;-71
2023/06/12 03:09:46;;;;;;;7.85;5.68;;;18.50;99.90;;;;;;5091616;28;20200;-72
2023/06/12 03:12:14;;;;;;;6.28;5.78;;;18.50;99.90;;;;;;5091900;28;20228;-71
2023/06/12 03:14:44;;;;;;;6.90;6.28;;;18.40;99.90;;;;;;5091228;28;20204;-71
2023/06/12 03:17:12;;;;;;;10.60;6.00;;;18.40;99.90;;;;;;5091173;28;20215;-71
2023/06/12 03:19:39;;;;;;;10.85;6.25;;;18.40;99.90;;;;;;5091489;28;20208;-71
2023/06/12 03:22:08;;;;;;;7.10;5.97;;;18.30;99.90;;;;;;5091631;28;20224;-71
2023/06/12 03:24:37;;;;;;;6.00;5.60;;;18.30;99.90;;;;;;5091044;28;20253;-71
2023/06/12 03:27:05;;;;;;;6.43;5.53;;;18.30;99.90;;;;;;5091596;28;20208;-71
2023/06/12 03:29:33;;;;;;;5.97;5.57;;;18.30;99.90;;;;;;5091262;28;20223;-71
2023/06/12 03:32:03;;;;;;;6.40;5.90;;;18.30;99.90;;;;;;5091151;28;20263;-71
2023/06/12 03:34:31;;;;;;;5.90;5.40;;;18.30;99.90;;;;;;5091086;28;20308;-72
2023/06/12 03:36:59;;;;;;;7.78;6.18;;;18.30;99.90;;;;;;5091112;28;20211;-72
2023/06/12 03:39:27;;;;;;;8.85;6.03;;;18.30;99.90;;;;;;5091077;28;20246;-72
2023/06/12 03:41:56;;;;;;;7.45;5.57;;;18.30;99.90;;;;;;5091068;28;20226;-71
2023/06/12 03:44:24;;;;;;;6.65;6.05;;;18.30;99.90;;;;;;5090954;28;20552;-72
2023/06/12 03:46:52;;;;;;;6.50;5.93;;;18.30;99.90;;;;;;5090342;28;20648;-72
2023/06/12 03:49:23;;;;;;;6.22;5.72;;;18.30;99.90;;;;;;5090807;28;20713;-71
2023/06/12 03:51:50;;;;;;;6.10;5.60;;;18.30;99.90;;;;;;5091014;28;20685;-71
2023/06/12 03:54:18;;;;;;;6.45;5.85;;;18.30;99.90;;;;;;5090841;28;20231;-72
2023/06/12 03:56:48;;;;;;;6.28;5.60;;;18.30;99.90;;;;;;5089809;28;20246;-72
2023/06/12 03:59:16;;;;;;;6.30;5.70;;;18.30;99.90;;;;;;5090619;28;20242;-71
2023/06/12 04:01:43;;;;;;;6.20;5.60;;;18.30;99.90;;;;;;5090814;28;20196;-72
2023/06/12 04:04:12;;;;;;;6.40;5.70;;;18.30;99.90;;;;;;5090753;28;20261;-72
2023/06/12 04:06:41;;;;;;;7.05;6.35;;;18.40;99.90;;;;;;5089488;28;20286;-72
2023/06/12 04:09:12;;;;;;;5.95;5.55;;;18.40;99.90;;;;;;5090268;28;20208;-72
2023/06/12 04:11:40;;;;;;;6.05;5.53;;;18.40;99.90;;;;;;5089682;28;20645;-72
2023/06/12 04:14:08;;;;;;;6.18;5.45;;;18.40;99.90;;;;;;5090275;28;20227;-70
2023/06/12 04:16:36;;;;;;;6.00;5.50;;;18.50;99.90;;;;;;5089947;28;20291;-70
2023/06/12 04:19:04;;;;;;;7.85;5.65;;;18.50;99.90;;;;;;5090485;28;20204;-69
2023/06/12 04:21:33;;;;;;;5.90;5.40;;;18.60;99.90;;;;;;5089917;28;20311;-69
2023/06/12 04:24:03;;;;;;;6.60;5.63;;;18.60;99.90;;;;;;5090105;28;20311;-69
2023/06/12 04:26:31;;;;;;;6.00;5.40;;;18.70;99.90;;;;;;5089545;28;20653;-69
2023/06/12 04:29:02;;;;;;;6.15;5.20;;;18.70;99.90;;;;;;5090149;28;20259;-70
2023/06/12 04:31:30;;;;;;;6.60;5.43;;;18.80;99.90;;;;;;5090573;28;20222;-69
2023/06/12 04:33:58;;;;;;;5.70;5.15;;;18.80;99.90;;;;;;5089999;28;20235;-70
2023/06/12 04:36:27;;;;;;;7.95;5.93;;;18.90;99.90;;;;;;5089489;28;20594;-69
2023/06/12 04:38:56;;;;;;;6.72;6.10;;;18.90;99.90;;;;;;5090236;28;20187;-69
2023/06/12 04:41:27;;;;;;;6.00;5.55;;;18.90;99.90;;;;;;5090514;28;20203;-69
2023/06/12 04:43:58;;;;;;;9.27;5.65;;;19.00;99.90;;;;;;5096690;28;20235;-69
2023/06/12 04:46:28;;;;;;;6.28;5.68;;;19.00;99.90;;;;;;5089438;28;20291;-70
2023/06/12 04:48:56;;;;;;;6.25;5.63;;;19.00;99.90;;;;;;5089605;28;20244;-69
2023/06/12 04:51:24;;;;;;;5.40;5.00;;;19.00;99.90;;;;;;5089602;28;20207;-71
2023/06/12 04:53:55;;;;;;;6.00;5.57;;;19.10;99.90;;;;;;5105485;22;20228;-61
2023/06/12 04:56:23;;;;;;;6.25;4.78;;;19.10;99.90;;;;;;5091673;28;20219;-61
2023/06/12 04:58:53;;;;;;;6.80;4.57;;;19.20;99.90;;;;;;5091414;28;20283;-62
2023/06/12 05:01:21;;;;;;;6.22;4.78;;;19.40;99.90;;;;;;5091581;28;20286;-62
2023/06/12 05:03:50;;;;;;;5.60;5.10;;;19.70;99.90;;;;;;5091387;28;20652;-62
2023/06/12 05:06:18;;;;;;;7.18;5.57;;;20.00;99.90;;;;;;5090574;28;20228;-63
2023/06/12 05:08:46;;;;;;;5.40;5.00;;;20.20;99.90;;;;;;5091445;28;20303;-62
2023/06/12 05:11:14;;;;;;;7.75;5.28;;;20.30;99.90;;;;;;5092282;28;20238;-62
2023/06/12 05:13:42;;;;;;;5.40;5.03;;;20.40;99.90;;;;;;5091164;28;20257;-62
2023/06/12 05:16:11;;;;;;;5.53;5.13;;;20.50;99.90;;;;;;5090511;28;20316;-62
2023/06/12 05:18:39;;;;;;;5.63;5.13;;;20.60;99.90;;;;;;5090814;28;20204;-63
2023/06/12 05:21:07;;;;;;;5.45;4.88;;;20.60;99.90;;;;;;5092003;28;20246;-62
2023/06/12 05:23:35;;;;;;;6.53;5.63;;;20.70;99.90;;;;;;5091743;28;20203;-63
2023/06/12 05:26:04;;;;;;;7.68;5.05;;;20.80;99.90;;;;;;5090628;28;20208;-63
2023/06/12 05:28:31;;;;;;;5.85;5.28;;;20.90;99.90;;;;;;5091165;28;20646;-63
2023/06/12 05:30:59;;;;;;;5.88;5.32;;;20.90;99.90;;;;;;5085337;28;20223;-63
2023/06/12 05:33:29;;;;;;;8.40;5.80;;;21.00;99.90;;;;;;5091541;28;20769;-62
2023/06/12 05:35:57;;;;;;;5.82;5.20;;;21.00;99.90;;;;;;5091782;28;20703;-63
2023/06/12 05:38:25;;;;;;;5.53;5.03;;;21.00;99.90;;;;;;5092196;28;20844;-62
2023/06/12 05:40:53;;;;;;;6.05;5.53;;;21.10;99.90;;;;;;5092181;28;20283;-62
2023/06/12 05:43:21;;;;;;;9.18;5.30;;;21.10;99.90;;;;;;5092097;28;20681;-62
2023/06/12 05:45:49;;;;;;;16.08;7.43;;;21.10;99.90;;;;;;5091829;28;20204;-63
2023/06/12 05:48:16;;;;;;;8.93;6.57;;;21.10;99.90;;;;;;5092362;28;20235;-63
2023/06/12 05:50:46;;;;;;;12.75;6.97;;;21.20;99.90;;;;;;5092027;28;20224;-63
2023/06/12 05:53:13;;;;;;;17.20;7.55;;;21.20;99.90;;;;;;5092046;28;20216;-62
2023/06/12 05:55:41;;;;;;;10.25;6.03;;;21.30;99.90;;;;;;5091573;28;20596;-62
2023/06/12 05:58:09;;;;;;;5.20;4.72;;;21.40;99.90;;;;;;5104846;22;20227;-55
2023/06/12 06:00:37;;;;;;;6.75;5.72;;;21.40;99.90;;;;;;5091403;28;20286;-53
2023/06/12 06:03:06;;;;;;;7.55;5.57;;;21.40;99.90;;;;;;5092354;28;20662;-55
2023/06/12 06:05:34;;;;;;;5.28;4.90;;;21.50;99.90;;;;;;5091863;28;20204;-56
2023/06/12 06:08:04;;;;;;;7.28;5.57;;;21.50;99.90;;;;;;5091549;28;20250;-57
2023/06/12 06:10:32;;;;;;;5.82;5.32;;;21.60;99.90;;;;;;5090857;28;20281;-54
2023/06/12 06:13:02;;;;;;;5.65;5.15;;;21.60;99.90;;;;;;5087503;28;20208;-53
2023/06/12 06:15:30;;;;;;;6.55;5.50;;;21.70;99.90;;;;;;5089379;28;20257;-53
2023/06/12 06:17:57;;;;;;;5.85;5.28;;;21.70;99.90;;;;;;5091594;28;20220;-53
2023/06/12 06:20:26;;;;;;;6.05;5.45;;;21.70;99.90;;;;;;5091428;28;20204;-53
2023/06/12 06:22:54;;;;;;;7.22;4.80;;;21.80;99.90;;;;;;5091621;28;20204;-54
2023/06/12 06:25:23;;;;;;;5.97;5.50;;;21.80;99.90;;;;;;5091214;28;20629;-53
2023/06/12 06:27:51;;;;;;;5.90;5.30;;;21.80;99.90;;;;;;5091263;28;20259;-56
2023/06/12 06:30:19;;;;;;;8.32;6.72;;;21.90;99.90;;;;;;5089887;28;20699;-55
2023/06/12 06:32:47;;;;;;;10.85;5.20;;;21.90;99.90;;;;;;5091087;28;20203;-57
2023/06/12 06:35:15;;;;;;;9.15;5.55;;;21.90;99.90;;;;;;5091144;28;20737;-57
2023/06/12 06:37:43;;;;;;;9.98;5.60;;;21.90;99.90;;;;;;5091230;28;20223;-54
2023/06/12 06:40:11;;;;;;;6.07;5.30;;;22.00;99.90;;;;;;5091488;28;20291;-53
2023/06/12 06:42:41;;;;;;;8.13;5.47;;;22.00;99.90;;;;;;5090472;28;20639;-56
2023/06/12 06:45:10;;;;;;;7.20;5.50;;;22.10;99.90;;;;;;5084113;28;20283;-53
2023/06/12 06:47:38;;;;;;;5.07;4.68;;;22.10;99.90;;;;;;5085157;28;20308;-54
2023/06/12 06:50:07;;;;;;;8.20;5.30;;;22.20;99.90;;;;;;5091332;28;20228;-53
2023/06/12 06:52:35;;;;;;;8.18;5.60;;;22.20;99.90;;;;;;5090067;28;20239;-53
2023/06/12 06:55:03;;;;;;;5.68;4.97;;;22.20;99.90;;;;;;5090770;28;20691;-54
2023/06/12 06:57:31;;;;;;;7.28;5.65;;;22.20;99.90;;;;;;5091202;28;20727;-53
2023/06/12 07:00:04;;;;;;;10.35;5.60;;;22.20;99.90;;;;;;5091487;28;20204;-52
2023/06/12 07:02:32;;;;;;;9.13;5.95;;;22.30;99.90;;;;;;5091317;28;20253;-54
2023/06/12 07:05:00;;;;;;;6.43;5.78;;;22.30;99.90;;;;;;5094536;28;20204;-53
2023/06/12 07:07:28;;;;;;;6.40;5.10;;;22.40;99.90;;;;;;5094997;28;20314;-57
2023/06/12 07:09:56;;;;;;;9.13;5.32;;;22.40;99.90;;;;;;5094909;28;20274;-56
2023/06/12 07:12:24;;;;;;;7.95;5.10;;;22.50;99.90;;;;;;5093437;28;20791;-56
2023/06/12 07:14:52;;;;;;;5.30;4.80;;;22.60;99.90;;;;;;5089483;28;20204;-52
2023/06/12 07:17:21;;;;;;;6.18;5.50;;;22.70;99.90;;;;;;5092463;28;20273;-52
2023/06/12 07:19:49;;;;;;;10.55;5.45;;;22.80;99.90;;;;;;5093323;28;20204;-54
2023/06/12 07:22:16;;;;;;;5.85;5.30;;;22.80;99.90;;;;;;5094191;28;20239;-56
2023/06/12 07:24:44;;;;;;;6.13;5.45;;;22.90;99.90;;;;;;5093112;28;20315;-53
2023/06/12 07:27:12;;;;;;;6.07;5.35;;;22.90;99.90;;;;;;5094246;28;20741;-53
2023/06/12 07:29:40;;;;;;;5.32;5.03;;;23.00;99.90;;;;;;5094565;28;20635;-53
2023/06/12 07:32:09;;;;;;;5.45;4.95;;;23.00;99.90;;;;;;5094381;28;20285;-54
2023/06/12 07:34:39;;;;;;;5.15;4.78;;;23.10;99.90;;;;;;5094331;28;20207;-54
2023/06/12 07:37:07;;;;;;;5.38;4.97;;;23.10;99.90;;;;;;5094675;28;20314;-54
2023/06/12 07:39:35;;;;;;;5.82;5.43;;;23.10;99.90;;;;;;5094477;28;20204;-55
2023/06/12 07:42:03;;;;;;;5.53;4.80;;;23.20;99.90;;;;;;5094392;28;20199;-55
2023/06/12 07:44:31;;;;;;;5.88;5.13;;;23.30;99.90;;;;;;5093921;28;20235;-55
2023/06/12 07:47:00;;;;;;;4.95;4.65;;;23.40;99.90;;;;;;5094267;28;20319;-55
2023/06/12 07:49:28;;;;;;;6.75;4.95;;;23.50;99.90;;;;;;5094406;28;20210;-55
2023/06/12 07:51:57;;;;;;;8.68;4.75;;;23.70;99.90;;;;;;5094025;28;20656;-54
2023/06/12 07:54:25;;;;;;;5.55;5.07;;;23.80;99.90;;;;;;5094127;28;20298;-56
2023/06/12 07:56:53;;;;;;;5.63;5.05;;;23.80;99.90;;;;;;5093534;28;20754;-53
2023/06/12 07:59:21;;;;;;;5.93;5.10;;;23.90;99.90;;;;;;5093961;28;20261;-54
2023/06/12 08:01:48;;;;;;;9.38;5.45;;;24.00;99.90;;;;;;5094201;28;20199;-53
2023/06/12 08:04:16;;;;;;;7.95;4.95;;;24.10;99.90;;;;;;5094040;28;20575;-53
2023/06/12 08:06:44;;;;;;;5.50;5.00;;;24.10;99.90;;;;;;5093677;28;20204;-53
2023/06/12 08:09:14;;;;;;;5.07;4.78;;;24.20;99.90;;;;;;5093821;28;20212;-53
2023/06/12 08:11:42;;;;;;;5.47;5.05;;;24.30;99.90;;;;;;5093550;28;20238;-52
2023/06/12 08:14:09;;;;;;;7.38;4.80;;;24.40;99.90;;;;;;5093248;28;20211;-52
2023/06/12 08:16:38;;;;;;;6.93;5.63;;;24.50;99.90;;;;;;5092775;28;20260;-53
2023/06/12 08:19:07;;;;;;;5.30;4.97;;;24.60;99.90;;;;;;5093630;28;20253;-55
2023/06/12 08:21:36;;;;;;;5.20;4.80;;;24.70;99.90;;;;;;5093562;28;20675;-53
2023/06/12 08:24:06;;;;;;;9.27;5.40;;;24.80;99.90;;;;;;5093349;28;20222;-53
2023/06/12 08:26:35;;;;;;;6.15;4.85;;;24.90;99.90;;;;;;5093600;28;20725;-52
2023/06/12 08:29:03;;;;;;;7.75;4.80;;;24.90;99.90;;;;;;5093384;28;20204;-56
2023/06/12 08:31:33;;;;;;;7.15;5.30;;;25.10;99.90;;;;;;5091575;28;20281;-55
2023/06/12 08:34:01;;;;;;;5.60;5.10;;;25.10;99.90;;;;;;5087917;28;20208;-53
2023/06/12 08:36:29;;;;;;;7.40;5.18;;;25.20;99.90;;;;;;5088394;28;20246;-56
2023/06/12 08:38:57;;;;;;;5.68;5.18;;;25.30;99.90;;;;;;5092056;28;20224;-56
2023/06/12 08:41:25;;;;;;;5.65;5.15;;;25.30;99.90;;;;;;5086940;28;20308;-54
2023/06/12 08:43:54;;;;;;;4.95;4.65;;;25.40;99.90;;;;;;5089006;28;20628;-54
2023/06/12 08:46:22;;;;;;;5.60;5.20;;;25.50;99.90;;;;;;5090220;28;20200;-53
2023/06/12 08:48:50;;;;;;;7.63;4.80;;;25.50;99.90;;;;;;5091160;28;20274;-55
2023/06/12 08:51:18;;;;;;;5.38;4.88;;;25.70;99.90;;;;;;5091437;28;20228;-53
2023/06/12 08:53:47;;;;;;;5.43;5.00;;;25.80;99.90;;;;;;5092713;28;20707;-55
2023/06/12 08:56:15;;;;;;;5.32;4.50;;;25.80;99.90;;;;;;5091918;28;20671;-52
2023/06/12 08:58:43;;;;;;;6.13;5.55;;;25.90;99.90;;;;;;5092184;28;20232;-53
2023/06/12 09:01:14;;;;;;;5.50;5.07;;;26.00;99.90;;;;;;5093030;28;20277;-53
2023/06/12 09:03:43;;;;;;;5.53;4.88;;;26.10;99.90;;;;;;5091079;28;20204;-54
2023/06/12 09:06:12;;;;;;;6.95;5.05;;;26.10;99.90;;;;;;5092708;28;20246;-55
2023/06/12 09:08:41;;;;;;;6.18;4.93;;;26.20;99.90;;;;;;5092454;28;20323;-56
2023/06/12 09:11:09;;;;;;;5.97;5.47;;;26.20;99.90;;;;;;5092602;28;20703;-53
2023/06/12 09:13:41;;;;;;;7.57;5.22;;;26.30;99.90;;;;;;5092697;28;20269;-53
2023/06/12 09:16:12;;;;;;;6.60;4.90;;;26.30;99.90;;;;;;5092045;28;20238;-53
2023/06/12 09:18:50;;;;;;;5.80;5.30;;;26.50;99.90;;;;;;5092450;28;20238;-56
2023/06/12 09:21:19;;;;;;;5.75;4.95;;;26.70;99.90;;;;;;5092554;28;20283;-53
2023/06/12 09:23:50;;;;;;;7.65;5.28;;;26.90;99.90;;;;;;5092307;28;20231;-55
2023/06/12 09:26:21;;;;;;;6.95;4.90;;;27.10;99.90;;;;;;5091924;28;20215;-53
2023/06/12 09:28:52;;;;;;;5.82;5.03;;;27.20;99.90;;;;;;5090736;28;20310;-54
2023/06/12 09:31:22;;;;;;;5.72;5.32;;;27.40;99.90;;;;;;5092321;28;20230;-55
2023/06/12 09:33:51;;;;;;;5.68;5.18;;;27.50;99.90;;;;;;5092141;28;20261;-54
2023/06/12 09:36:20;;;;;;;7.38;4.80;;;27.70;99.90;;;;;;5092073;28;20664;-53
2023/06/12 09:38:48;;;;;;;5.97;4.80;;;27.90;99.90;;;;;;5092095;28;20228;-53
2023/06/12 09:41:18;;;;;;;6.15;5.28;;;28.00;99.90;;;;;;5091975;28;20239;-54
2023/06/12 09:43:46;;;;;;;5.82;5.32;;;27.80;99.90;;;;;;5110456;28;20199;-54
2023/06/12 09:46:16;;;;;;;5.63;5.13;;;27.50;99.90;;;;;;5112219;28;20639;-53
2023/06/12 09:48:46;;;;;;;7.28;5.40;;;27.30;99.90;;;;;;5112468;28;20223;-54
2023/06/12 09:51:14;;;;;;;6.07;5.60;;;27.40;99.90;;;;;;5112328;28;20276;-55
2023/06/12 09:53:42;;;;;;;5.88;5.35;;;27.40;99.90;;;;;;5112141;28;20708;-54
2023/06/12 09:56:10;;;;;;;6.22;5.60;;;27.50;99.90;;;;;;5112271;28;20229;-55
2023/06/12 09:58:39;;;;;;;5.72;5.32;;;27.60;99.90;;;;;;5112373;28;20277;-54
2023/06/12 10:01:08;;;;;;;5.50;5.00;;;27.50;99.90;;;;;;5112307;28;20207;-57
2023/06/12 10:03:38;;;;;;;9.10;5.60;;;27.70;99.90;;;;;;5112163;28;20207;-54
2023/06/12 10:06:08;;;;;;;6.93;5.95;;;28.10;99.80;;;;;;5111742;28;20203;-53
2023/06/12 10:08:35;;;;;;;5.28;4.97;;;28.10;98.70;;;;;;5112067;28;20258;-56
2023/06/12 10:11:03;;;;;;;8.48;5.07;;;28.00;98.00;;;;;;5112296;28;20271;-56
2023/06/12 10:13:31;;;;;;;5.50;4.80;;;28.30;99.60;;;;;;5112138;28;20568;-56
2023/06/12 10:16:00;;;;;;;5.80;5.30;;;28.70;99.30;;;;;;5111784;28;20207;-56
2023/06/12 10:18:28;;;;;;;5.28;4.78;;;29.10;98.50;;;;;;5112278;28;20227;-56
2023/06/12 10:20:56;;;;;;;6.07;5.57;;;29.40;97.10;;;;;;5112297;28;20188;-56
2023/06/12 10:23:25;;;;;;;5.97;5.57;;;29.60;97.50;;;;;;5112216;28;20199;-55
2023/06/12 10:25:53;;;;;;;6.72;5.72;;;30.00;96.80;;;;;;5111675;28;20737;-54
2023/06/12 10:28:21;;;;;;;5.72;5.32;;;30.20;96.10;;;;;;5112105;28;20272;-54
2023/06/12 10:31:12;;;;;;;6.38;5.72;;;30.40;97.50;;;;;;5112236;28;20237;-54
2023/06/12 10:33:57;;;;;;;6.55;5.88;;;30.80;95.20;;;;;;5112093;28;20291;-55
2023/06/12 10:36:25;;;;;;;9.00;5.35;;;30.40;92.40;;;;;;5111797;28;20199;-53
2023/06/12 10:39:05;;;;;;;6.05;5.55;;;29.80;92.60;;;;;;5113957;28;20251;-55
2023/06/12 10:41:33;;;;;;;6.05;5.55;;;29.60;93.10;;;;;;5115629;28;20686;-54
2023/06/12 10:44:01;;;;;;;5.95;5.32;;;29.20;92.40;;;;;;5095627;28;20208;-54
2023/06/12 10:46:44;;;;;;;5.85;5.35;;;29.20;93.10;;;;;;5095338;28;20688;-55
2023/06/12 10:49:13;;;;;;;6.20;5.70;;;29.50;92.90;;;;;;5095434;28;20207;-56
2023/06/12 10:51:47;;;;;;;8.60;5.88;;;29.60;92.90;;;;;;5095413;28;20612;-54
2023/06/12 10:54:17;;;;;;;5.40;4.97;;;30.10;92.60;;;;;;5094781;28;20276;-55
2023/06/12 10:56:58;;;;;;;5.55;5.05;;;30.60;89.90;;;;;;5094548;28;20236;-55
2023/06/12 10:59:34;;;;;;;6.47;5.53;;;30.80;86.70;;;;;;5095183;28;20203;-56
2023/06/12 11:02:02;;;;;;;6.32;5.50;;;30.40;85.00;;;;;;5095172;28;20283;-54
2023/06/12 11:04:36;;;;;;;6.47;5.18;;;30.30;89.20;;;;;;5094708;28;20290;-54
2023/06/12 11:07:05;;;;;;;6.13;5.53;;;30.30;86.80;;;;;;5094758;28;20224;-54
2023/06/12 11:09:39;;;;;;;6.10;5.55;;;30.70;83.20;;;;;;5093293;28;20555;-54
2023/06/12 11:12:08;;;;;;;5.80;5.30;;;31.10;80.00;;;;;;5094592;28;20204;-55
2023/06/12 11:14:36;;;;;;;5.93;5.45;;;31.50;80.00;;;;;;5094241;28;20211;-62
2023/06/12 11:17:04;;;;;;;5.95;5.45;;;31.90;78.20;;;;;;5092462;28;20220;-54
2023/06/12 11:19:32;;;;;;;7.03;5.80;;;32.20;77.60;;;;;;5086886;28;20227;-57
2023/06/12 11:22:03;;;;;;;8.25;5.60;;;32.10;70.90;;;;;;5086655;28;20249;-54
2023/06/12 11:24:31;;;;;;;7.03;5.30;;;32.30;75.20;;;;;;5088005;28;20208;-56
2023/06/12 11:27:01;;;;;;;6.13;5.60;;;32.70;71.60;;;;;;5086077;28;20741;-55
2023/06/12 11:29:29;;;;;;;5.78;5.43;;;32.90;71.60;;;;;;5093175;28;20242;-55
2023/06/12 11:32:00;;;;;;;5.97;5.53;;;32.60;67.70;;;;;;5093480;28;20572;-54
2023/06/12 11:34:33;;;;;;;6.60;5.95;;;32.30;64.80;;;;;;5094550;28;20232;-55
2023/06/12 11:37:14;;;;;;;6.35;5.85;;;32.20;67.90;;;;;;5111123;28;20219;-54
2023/06/12 11:39:42;;;;;;;7.60;6.13;;;32.60;68.70;;;;;;5094393;28;20230;-55
2023/06/12 11:42:14;;;;;;;6.00;5.40;;;32.60;65.80;;;;;;5098850;28;20230;-56
2023/06/12 11:44:42;;;;;;;6.20;5.60;;;32.80;65.80;;;;;;5114656;28;20203;-55
2023/06/12 11:47:09;;;;;;;5.95;5.50;;;32.90;65.00;;;;;;5114591;28;20793;-54
2023/06/12 11:49:40;;;;;;;7.68;6.35;;;33.00;67.30;;;;;;5114041;28;20238;-58
2023/06/12 11:52:08;;;;;;;8.57;6.10;;;33.30;69.70;;;;;;5114690;28;20211;-57
2023/06/12 11:54:58;;;;;;;6.95;5.50;;;33.70;69.70;;;;;;5113329;28;20286;-56
2023/06/12 11:57:31;;;;;;;9.32;5.40;;;33.70;66.60;;;;;;5114459;28;20326;-56
2023/06/12 11:59:59;;;;;;;7.57;6.00;;;33.80;67.10;;;;;;5113994;28;20301;-58
2023/06/12 12:02:29;;;;;;;6.03;5.30;;;33.90;65.00;;;;;;5112582;28;20309;-57
2023/06/12 12:04:59;;;;;;;11.52;5.72;;;33.90;65.00;;;;;;5113654;28;20213;-58
2023/06/12 12:07:30;;;;;;;6.22;5.80;;;33.50;66.40;;;;;;5073791;28;20236;-55
2023/06/12 12:10:06;;;;;;;7.05;6.03;;;33.00;64.40;;;;;;5073778;28;20208;-55
2023/06/12 12:12:46;;;;;;;6.13;5.63;;;32.40;66.30;;;;;;5073629;28;20208;-55
2023/06/12 12:15:14;;;;;;;8.80;5.88;;;32.30;63.50;;;;;;5072940;28;20236;-56
2023/06/12 12:17:42;;;;;;;6.03;5.57;;;32.80;66.70;;;;;;5073693;28;20238;-54
2023/06/12 12:20:17;;;;;;;6.57;5.55;;;33.50;67.10;;;;;;5073339;28;20622;-56
2023/06/12 12:22:47;;;;;;;6.07;5.68;;;33.80;65.00;;;;;;5072243;28;20242;-57
2023/06/12 12:25:17;;;;;;;5.60;5.20;;;34.10;65.70;;;;;;5072815;28;20236;-59
2023/06/12 12:27:46;;;;;;;7.43;5.93;;;34.50;64.70;;;;;;5073015;28;20311;-57
2023/06/12 12:30:17;;;;;;;6.57;5.88;;;34.70;64.00;;;;;;5073343;28;20225;-58
2023/06/12 12:32:46;;;;;;;6.28;5.63;;;34.80;63.30;;;;;;5073159;28;20212;-57
2023/06/12 12:35:15;;;;;;;6.13;5.70;;;34.70;61.50;;;;;;5072802;28;20233;-57
2023/06/12 12:37:43;;;;;;;6.05;5.25;;;34.70;64.40;;;;;;5074347;28;20224;-57
2023/06/12 12:40:13;;;;;;;6.18;5.50;;;34.80;60.70;;;;;;5078410;28;20303;-61
2023/06/12 12:42:42;;;;;;;5.38;5.07;;;34.70;63.00;;;;;;5092415;28;20204;-56
2023/06/12 12:45:12;;;;;;;9.05;6.05;;;34.90;62.00;;;;;;5092895;28;20249;-57
2023/06/12 12:47:40;;;;;;;7.90;5.40;;;34.70;57.60;;;;;;5093354;28;20621;-57
2023/06/12 12:50:09;;;;;;;7.10;5.53;;;34.60;60.00;;;;;;5092830;28;20257;-59
2023/06/12 12:52:47;;;;;;;5.50;4.82;;;34.30;59.80;;;;;;5091404;28;20671;-57
2023/06/12 12:55:17;;;;;;;6.80;6.00;;;34.00;58.00;;;;;;5092518;28;20736;-57